sensor_id;sensor_type;location;lat;lon;timestamp;P1;durP1;ratioP1;P2;durP2;ratioP2
37284;SDS011;23172;53.550;9.964;2024-01-30T01:55:35;1999.90;;;999.90;;
37284;SDS011;23172;53.550;9.964;2024-01-30T02:00:37;1999.90;;;999.90;;
37284;SDS011;23172;53.550;9.964;2024-01-30T02:05:41;1999.90;;;999.90;;
37284;SDS011;23172;53.550;9.964;2024-01-30T02:10:45;1999.90;;;999.90;;
37284;SDS011;23172;53.550;9.964;2024-01-30T02:15:48;1999.90;;;999.90;;
37284;SDS011;23172;53.550;9.964;2024-01-30T02:20:51;1999.90;;;999.90;;
37284;SDS011;23172;53.550;9.964;2024-01-30T02:25:57;1999.90;;;999.90;;
37284;SDS011;23172;53.550;9.964;2024-01-30T02:30:59;1999.90;;;999.90;;
37284;SDS011;23172;53.550;9.964;2024-01-30T02:36:00;1999.90;;;999.90;;
37284;SDS011;23172;53.550;9.964;2024-01-30T02:41:04;1999.90;;;999.90;;
37284;SDS011;23172;53.550;9.964;2024-01-30T02:46:06;1999.90;;;999.90;;
37284;SDS011;23172;53.550;9.964;2024-01-30T02:51:08;1999.90;;;999.90;;
37284;SDS011;23172;53.550;9.964;2024-01-30T02:56:11;1999.90;;;999.90;;
37284;SDS011;23172;53.550;9.964;2024-01-30T03:01:13;1999.90;;;999.90;;
37284;SDS011;23172;53.550;9.964;2024-01-30T03:06:15;1999.90;;;999.90;;
37284;SDS011;23172;53.550;9.964;2024-01-30T03:11:19;1999.90;;;999.90;;
37284;SDS011;23172;53.550;9.964;2024-01-30T03:16:20;1999.90;;;999.90;;
37284;SDS011;23172;53.550;9.964;2024-01-30T03:21:22;1999.90;;;999.90;;
37284;SDS011;23172;53.550;9.964;2024-01-30T03:26:26;1999.90;;;999.90;;
37284;SDS011;23172;53.550;9.964;2024-01-30T03:31:27;1999.90;;;999.90;;
37284;SDS011;23172;53.550;9.964;2024-01-30T03:36:29;1999.90;;;999.90;;
37284;SDS011;23172;53.550;9.964;2024-01-30T03:41:34;1999.90;;;999.90;;
37284;SDS011;23172;53.550;9.964;2024-01-30T03:46:36;1999.90;;;999.90;;
37284;SDS011;23172;53.550;9.964;2024-01-30T03:51:38;1999.90;;;999.90;;
37284;SDS011;23172;53.550;9.964;2024-01-30T03:56:41;1999.90;;;999.90;;
37284;SDS011;23172;53.550;9.964;2024-01-30T04:01:46;1999.90;;;999.90;;
37284;SDS011;23172;53.550;9.964;2024-01-30T04:06:47;1999.90;;;999.90;;
37284;SDS011;23172;53.550;9.964;2024-01-30T04:11:51;1999.90;;;999.90;;
37284;SDS011;23172;53.550;9.964;2024-01-30T04:16:53;1999.90;;;999.90;;
37284;SDS011;23172;53.550;9.964;2024-01-30T04:21:55;1999.90;;;999.90;;
37284;SDS011;23172;53.550;9.964;2024-01-30T04:26:58;1999.90;;;999.90;;
37284;SDS011;23172;53.550;9.964;2024-01-30T04:32:00;1999.90;;;999.90;;
37284;SDS011;23172;53.550;9.964;2024-01-30T04:37:01;1999.90;;;999.90;;
37284;SDS011;23172;53.550;9.964;2024-01-30T04:42:05;1999.90;;;999.90;;
37284;SDS011;23172;53.550;9.964;2024-01-30T04:47:07;1999.90;;;999.90;;
37284;SDS011;23172;53.550;9.964;2024-01-30T04:52:11;1999.90;;;999.90;;
37284;SDS011;23172;53.550;9.964;2024-01-30T04:57:14;1999.90;;;999.90;;
37284;SDS011;23172;53.550;9.964;2024-01-30T05:02:16;1999.90;;;999.90;;
37284;SDS011;23172;53.550;9.964;2024-01-30T05:07:18;1629.63;;;766.63;;
37284;SDS011;23172;53.550;9.964;2024-01-30T05:12:21;1704.35;;;780.65;;
37284;SDS011;23172;53.550;9.964;2024-01-30T05:17:23;1999.90;;;999.90;;
37284;SDS011;23172;53.550;9.964;2024-01-30T05:22:25;770.63;;;179.98;;
37284;SDS011;23172;53.550;9.964;2024-01-30T05:27:28;1756.63;;;799.13;;
37284;SDS011;23172;53.550;9.964;2024-01-30T05:32:30;1671.63;;;777.75;;
37284;SDS011;23172;53.550;9.964;2024-01-30T05:37:32;491.58;;;79.93;;
37284;SDS011;23172;53.550;9.964;2024-01-30T05:42:35;1745.28;;;795.25;;
37284;SDS011;23172;53.550;9.964;2024-01-30T05:47:37;1707.13;;;652.25;;
37284;SDS011;23172;53.550;9.964;2024-01-30T05:52:39;1099.55;;;267.95;;
37284;SDS011;23172;53.550;9.964;2024-01-30T05:57:42;1648.53;;;634.65;;
37284;SDS011;23172;53.550;9.964;2024-01-30T06:02:44;959.17;;;196.75;;
37284;SDS011;23172;53.550;9.964;2024-01-30T06:07:46;1057.53;;;158.85;;
37284;SDS011;23172;53.550;9.964;2024-01-30T06:12:49;891.90;;;243.88;;
37284;SDS011;23172;53.550;9.964;2024-01-30T06:17:51;1711.05;;;436.90;;
37284;SDS011;23172;53.550;9.964;2024-01-30T06:22:53;1954.60;;;600.33;;
37284;SDS011;23172;53.550;9.964;2024-01-30T06:27:56;1408.60;;;359.02;;
37284;SDS011;23172;53.550;9.964;2024-01-30T06:32:58;1854.45;;;468.92;;
37284;SDS011;23172;53.550;9.964;2024-01-30T06:38:00;1848.18;;;561.00;;
37284;SDS011;23172;53.550;9.964;2024-01-30T06:43:03;1861.03;;;469.70;;
37284;SDS011;23172;53.550;9.964;2024-01-30T06:48:06;1760.88;;;592.53;;
37284;SDS011;23172;53.550;9.964;2024-01-30T06:53:08;1577.97;;;533.65;;
37284;SDS011;23172;53.550;9.964;2024-01-30T06:58:11;1945.72;;;447.73;;
37284;SDS011;23172;53.550;9.964;2024-01-30T07:03:13;1942.68;;;611.88;;
37284;SDS011;23172;53.550;9.964;2024-01-30T07:08:15;1824.63;;;479.38;;
37284;SDS011;23172;53.550;9.964;2024-01-30T07:13:19;1940.72;;;639.97;;
37284;SDS011;23172;53.550;9.964;2024-01-30T07:18:20;1617.43;;;419.40;;
37284;SDS011;23172;53.550;9.964;2024-01-30T07:23:22;1999.90;;;667.42;;
37284;SDS011;23172;53.550;9.964;2024-01-30T07:28:25;1799.65;;;729.97;;
37284;SDS011;23172;53.550;9.964;2024-01-30T07:33:27;1830.13;;;677.72;;
37284;SDS011;23172;53.550;9.964;2024-01-30T07:38:31;1999.90;;;786.67;;
37284;SDS011;23172;53.550;9.964;2024-01-30T07:43:34;1999.90;;;774.10;;
37284;SDS011;23172;53.550;9.964;2024-01-30T07:48:36;1737.82;;;796.08;;
37284;SDS011;23172;53.550;9.964;2024-01-30T07:53:38;1599.30;;;509.30;;
37284;SDS011;23172;53.550;9.964;2024-01-30T08:04:40;1529.50;;;563.55;;
37284;SDS011;23172;53.550;9.964;2024-01-30T08:09:42;1999.90;;;768.70;;
37284;SDS011;23172;53.550;9.964;2024-01-30T08:14:44;1899.50;;;712.40;;
37284;SDS011;23172;53.550;9.964;2024-01-30T08:19:47;1945.45;;;710.20;;
37284;SDS011;23172;53.550;9.964;2024-01-30T08:24:49;1999.90;;;807.42;;
37284;SDS011;23172;53.550;9.964;2024-01-30T08:29:51;1726.93;;;658.78;;
37284;SDS011;23172;53.550;9.964;2024-01-30T08:34:54;1909.50;;;739.78;;
37284;SDS011;23172;53.550;9.964;2024-01-30T08:39:55;1986.80;;;768.17;;
37284;SDS011;23172;53.550;9.964;2024-01-30T08:44:57;1999.90;;;772.58;;
37284;SDS011;23172;53.550;9.964;2024-01-30T08:50:01;1994.43;;;589.20;;
37284;SDS011;23172;53.550;9.964;2024-01-30T08:55:03;1999.90;;;718.53;;
37284;SDS011;23172;53.550;9.964;2024-01-30T09:00:06;1930.30;;;684.83;;
37284;SDS011;23172;53.550;9.964;2024-01-30T09:05:10;1999.90;;;681.47;;
37284;SDS011;23172;53.550;9.964;2024-01-30T09:10:12;1999.90;;;841.65;;
37284;SDS011;23172;53.550;9.964;2024-01-30T09:15:14;1835.53;;;613.35;;
37284;SDS011;23172;53.550;9.964;2024-01-30T09:20:17;1999.90;;;808.85;;
37284;SDS011;23172;53.550;9.964;2024-01-30T09:25:20;1999.90;;;749.30;;
37284;SDS011;23172;53.550;9.964;2024-01-30T09:30:22;1999.90;;;894.40;;
37284;SDS011;23172;53.550;9.964;2024-01-30T09:35:25;1762.80;;;586.05;;
37284;SDS011;23172;53.550;9.964;2024-01-30T09:40:27;1999.90;;;748.00;;
37284;SDS011;23172;53.550;9.964;2024-01-30T09:45:29;1999.90;;;671.50;;
37284;SDS011;23172;53.550;9.964;2024-01-30T09:50:34;1999.90;;;567.40;;
37284;SDS011;23172;53.550;9.964;2024-01-30T09:55:37;1999.90;;;673.80;;
37284;SDS011;23172;53.550;9.964;2024-01-30T10:00:40;1999.90;;;746.05;;
37284;SDS011;23172;53.550;9.964;2024-01-30T10:05:44;1986.88;;;501.35;;
37284;SDS011;23172;53.550;9.964;2024-01-30T10:10:52;1999.90;;;684.88;;
37284;SDS011;23172;53.550;9.964;2024-01-30T10:15:54;1999.90;;;551.90;;
37284;SDS011;23172;53.550;9.964;2024-01-30T10:21:00;1999.90;;;629.58;;
37284;SDS011;23172;53.550;9.964;2024-01-30T10:26:02;1877.25;;;388.02;;
37284;SDS011;23172;53.550;9.964;2024-01-30T10:31:05;1999.90;;;626.88;;
37284;SDS011;23172;53.550;9.964;2024-01-30T10:36:09;1771.88;;;441.35;;
37284;SDS011;23172;53.550;9.964;2024-01-30T10:41:15;1621.70;;;315.92;;
37284;SDS011;23172;53.550;9.964;2024-01-30T10:46:23;1691.75;;;452.08;;
37284;SDS011;23172;53.550;9.964;2024-01-30T10:51:32;1999.90;;;665.78;;
37284;SDS011;23172;53.550;9.964;2024-01-30T10:56:37;1999.90;;;557.83;;
37284;SDS011;23172;53.550;9.964;2024-01-30T11:01:41;1924.97;;;529.75;;
37284;SDS011;23172;53.550;9.964;2024-01-30T11:06:45;1999.90;;;462.77;;
37284;SDS011;23172;53.550;9.964;2024-01-30T11:11:50;1496.80;;;306.42;;
37284;SDS011;23172;53.550;9.964;2024-01-30T11:16:53;1947.70;;;445.65;;
37284;SDS011;23172;53.550;9.964;2024-01-30T11:21:59;1999.90;;;555.47;;
37284;SDS011;23172;53.550;9.964;2024-01-30T11:27:01;1676.15;;;378.48;;
37284;SDS011;23172;53.550;9.964;2024-01-30T11:32:09;1876.05;;;523.35;;
37284;SDS011;23172;53.550;9.964;2024-01-30T11:37:12;1595.68;;;456.73;;
37284;SDS011;23172;53.550;9.964;2024-01-30T11:42:16;1545.28;;;322.33;;
37284;SDS011;23172;53.550;9.964;2024-01-30T11:47:18;1641.75;;;401.30;;
37284;SDS011;23172;53.550;9.964;2024-01-30T11:52:21;1999.90;;;791.22;;
37284;SDS011;23172;53.550;9.964;2024-01-30T11:57:23;1999.90;;;638.58;;
37284;SDS011;23172;53.550;9.964;2024-01-30T12:02:25;1999.90;;;902.20;;
37284;SDS011;23172;53.550;9.964;2024-01-30T12:07:29;1999.90;;;988.75;;
37284;SDS011;23172;53.550;9.964;2024-01-30T12:12:31;1999.90;;;734.60;;
37284;SDS011;23172;53.550;9.964;2024-01-30T12:17:34;1999.90;;;786.30;;
37284;SDS011;23172;53.550;9.964;2024-01-30T12:22:38;1999.90;;;762.03;;
37284;SDS011;23172;53.550;9.964;2024-01-30T12:27:42;1999.90;;;778.53;;
37284;SDS011;23172;53.550;9.964;2024-01-30T12:32:45;1999.90;;;770.75;;
37284;SDS011;23172;53.550;9.964;2024-01-30T12:37:49;1999.90;;;803.67;;
37284;SDS011;23172;53.550;9.964;2024-01-30T12:42:51;1999.90;;;842.00;;
37284;SDS011;23172;53.550;9.964;2024-01-30T12:47:53;1999.90;;;775.63;;
37284;SDS011;23172;53.550;9.964;2024-01-30T12:52:57;1999.90;;;676.78;;
37284;SDS011;23172;53.550;9.964;2024-01-30T12:57:59;1999.90;;;777.58;;
37284;SDS011;23172;53.550;9.964;2024-01-30T13:03:01;1999.90;;;949.03;;
37284;SDS011;23172;53.550;9.964;2024-01-30T13:08:05;1999.90;;;972.88;;
37284;SDS011;23172;53.550;9.964;2024-01-30T13:13:07;1999.90;;;598.33;;
37284;SDS011;23172;53.550;9.964;2024-01-30T13:18:09;1999.90;;;925.75;;
37284;SDS011;23172;53.550;9.964;2024-01-30T13:23:13;1999.90;;;940.67;;
37284;SDS011;23172;53.550;9.964;2024-01-30T13:28:15;1999.90;;;967.17;;
37284;SDS011;23172;53.550;9.964;2024-01-30T13:33:16;1999.10;;;790.08;;
37284;SDS011;23172;53.550;9.964;2024-01-30T13:38:20;1999.90;;;926.72;;
37284;SDS011;23172;53.550;9.964;2024-01-30T13:43:21;1999.90;;;864.72;;
37284;SDS011;23172;53.550;9.964;2024-01-30T13:48:23;1999.90;;;935.90;;
37284;SDS011;23172;53.550;9.964;2024-01-30T13:53:27;1999.90;;;977.63;;
37284;SDS011;23172;53.550;9.964;2024-01-30T13:58:29;1852.97;;;925.67;;
37284;SDS011;23172;53.550;9.964;2024-01-30T14:03:30;1999.90;;;980.90;;
37284;SDS011;23172;53.550;9.964;2024-01-30T14:08:34;1372.43;;;794.08;;
37284;SDS011;23172;53.550;9.964;2024-01-30T14:13:36;1992.60;;;950.35;;
37284;SDS011;23172;53.550;9.964;2024-01-30T14:19:03;1824.75;;;750.92;;
37284;SDS011;23172;53.550;9.964;2024-01-30T14:24:06;1418.55;;;759.10;;
37284;SDS011;23172;53.550;9.964;2024-01-30T14:29:08;1256.75;;;670.00;;
37284;SDS011;23172;53.550;9.964;2024-01-30T14:34:10;1391.50;;;832.03;;
37284;SDS011;23172;53.550;9.964;2024-01-30T14:39:14;1131.15;;;586.25;;
37284;SDS011;23172;53.550;9.964;2024-01-30T14:44:16;1709.28;;;865.92;;
37284;SDS011;23172;53.550;9.964;2024-01-30T14:49:18;1173.60;;;671.53;;
37284;SDS011;23172;53.550;9.964;2024-01-30T14:54:22;775.40;;;540.95;;
37284;SDS011;23172;53.550;9.964;2024-01-30T14:59:24;1150.03;;;644.47;;
37284;SDS011;23172;53.550;9.964;2024-01-30T15:04:26;663.70;;;476.27;;
37284;SDS011;23172;53.550;9.964;2024-01-30T15:09:29;650.25;;;433.30;;
37284;SDS011;23172;53.550;9.964;2024-01-30T15:14:32;656.13;;;513.13;;
37284;SDS011;23172;53.550;9.964;2024-01-30T15:19:33;691.30;;;409.92;;
37284;SDS011;23172;53.550;9.964;2024-01-30T15:24:37;634.83;;;365.85;;
37284;SDS011;23172;53.550;9.964;2024-01-30T15:29:39;497.20;;;335.42;;
37284;SDS011;23172;53.550;9.964;2024-01-30T15:34:41;744.55;;;433.55;;
37284;SDS011;23172;53.550;9.964;2024-01-30T15:39:44;597.85;;;389.48;;
37284;SDS011;23172;53.550;9.964;2024-01-30T15:44:46;666.97;;;382.27;;
37284;SDS011;23172;53.550;9.964;2024-01-30T15:49:48;642.03;;;364.45;;
37284;SDS011;23172;53.550;9.964;2024-01-30T15:54:51;470.88;;;344.90;;
37284;SDS011;23172;53.550;9.964;2024-01-30T15:59:53;489.55;;;256.08;;
37284;SDS011;23172;53.550;9.964;2024-01-30T16:04:55;370.05;;;219.73;;
37284;SDS011;23172;53.550;9.964;2024-01-30T16:09:59;341.08;;;204.88;;
37284;SDS011;23172;53.550;9.964;2024-01-30T16:15:01;450.45;;;264.65;;
37284;SDS011;23172;53.550;9.964;2024-01-30T16:20:04;406.92;;;246.00;;
37284;SDS011;23172;53.550;9.964;2024-01-30T16:25:09;337.38;;;190.15;;
37284;SDS011;23172;53.550;9.964;2024-01-30T16:30:12;308.42;;;146.60;;
37284;SDS011;23172;53.550;9.964;2024-01-30T16:35:14;380.35;;;138.02;;
37284;SDS011;23172;53.550;9.964;2024-01-30T16:40:17;216.48;;;108.50;;
37284;SDS011;23172;53.550;9.964;2024-01-30T16:45:19;272.55;;;148.02;;
37284;SDS011;23172;53.550;9.964;2024-01-30T16:50:21;217.35;;;83.65;;
37284;SDS011;23172;53.550;9.964;2024-01-30T16:55:25;246.85;;;123.25;;
37284;SDS011;23172;53.550;9.964;2024-01-30T17:00:27;256.55;;;137.57;;
37284;SDS011;23172;53.550;9.964;2024-01-30T17:05:28;220.43;;;126.45;;
37284;SDS011;23172;53.550;9.964;2024-01-30T17:10:33;231.35;;;84.60;;
37284;SDS011;23172;53.550;9.964;2024-01-30T17:15:34;214.35;;;119.93;;
37284;SDS011;23172;53.550;9.964;2024-01-30T17:20:36;251.98;;;120.13;;
37284;SDS011;23172;53.550;9.964;2024-01-30T17:25:40;265.40;;;120.50;;
37284;SDS011;23172;53.550;9.964;2024-01-30T17:30:42;309.55;;;147.68;;
37284;SDS011;23172;53.550;9.964;2024-01-30T17:35:44;241.55;;;116.03;;
37284;SDS011;23172;53.550;9.964;2024-01-30T17:40:47;316.80;;;125.03;;
37284;SDS011;23172;53.550;9.964;2024-01-30T17:45:50;283.45;;;130.27;;
37284;SDS011;23172;53.550;9.964;2024-01-30T17:50:52;270.17;;;147.68;;
37284;SDS011;23172;53.550;9.964;2024-01-30T17:55:55;313.00;;;158.75;;
37284;SDS011;23172;53.550;9.964;2024-01-30T18:01:01;374.35;;;210.55;;
37284;SDS011;23172;53.550;9.964;2024-01-30T18:06:03;325.70;;;160.73;;
37284;SDS011;23172;53.550;9.964;2024-01-30T18:11:07;478.63;;;249.25;;
37284;SDS011;23172;53.550;9.964;2024-01-30T18:16:09;394.50;;;212.20;;
37284;SDS011;23172;53.550;9.964;2024-01-30T18:21:11;290.95;;;194.57;;
37284;SDS011;23172;53.550;9.964;2024-01-30T18:26:16;537.50;;;283.35;;
37284;SDS011;23172;53.550;9.964;2024-01-30T18:31:18;518.05;;;336.92;;
37284;SDS011;23172;53.550;9.964;2024-01-30T18:36:21;860.47;;;387.52;;
37284;SDS011;23172;53.550;9.964;2024-01-30T18:41:26;462.55;;;339.92;;
37284;SDS011;23172;53.550;9.964;2024-01-30T18:46:27;682.53;;;485.17;;
37284;SDS011;23172;53.550;9.964;2024-01-30T18:51:31;983.58;;;418.67;;
37284;SDS011;23172;53.550;9.964;2024-01-30T18:56:37;962.30;;;593.50;;
37284;SDS011;23172;53.550;9.964;2024-01-30T19:01:39;1149.30;;;647.75;;
37284;SDS011;23172;53.550;9.964;2024-01-30T19:06:41;1359.07;;;655.72;;
37284;SDS011;23172;53.550;9.964;2024-01-30T19:11:45;1571.68;;;709.75;;
37284;SDS011;23172;53.550;9.964;2024-01-30T19:16:47;1626.43;;;755.83;;
37284;SDS011;23172;53.550;9.964;2024-01-30T19:21:49;1880.88;;;818.03;;
37284;SDS011;23172;53.550;9.964;2024-01-30T19:26:54;1999.90;;;831.92;;
37284;SDS011;23172;53.550;9.964;2024-01-30T19:31:57;1999.90;;;837.00;;
37284;SDS011;23172;53.550;9.964;2024-01-30T19:36:58;1999.90;;;884.72;;
37284;SDS011;23172;53.550;9.964;2024-01-30T19:42:02;1890.43;;;729.95;;
37284;SDS011;23172;53.550;9.964;2024-01-30T19:47:05;1999.90;;;716.67;;
37284;SDS011;23172;53.550;9.964;2024-01-30T19:52:09;1999.90;;;862.03;;
37284;SDS011;23172;53.550;9.964;2024-01-30T19:57:13;1948.90;;;772.42;;
37284;SDS011;23172;53.550;9.964;2024-01-30T20:02:16;1385.60;;;642.05;;
37284;SDS011;23172;53.550;9.964;2024-01-30T20:07:20;1233.13;;;586.70;;
37284;SDS011;23172;53.550;9.964;2024-01-30T20:12:23;1052.22;;;626.15;;
37284;SDS011;23172;53.550;9.964;2024-01-30T20:17:25;1930.53;;;632.00;;
37284;SDS011;23172;53.550;9.964;2024-01-30T20:22:27;910.25;;;467.40;;
37284;SDS011;23172;53.550;9.964;2024-01-30T20:27:30;626.45;;;406.10;;
37284;SDS011;23172;53.550;9.964;2024-01-30T20:32:33;686.05;;;329.55;;
37284;SDS011;23172;53.550;9.964;2024-01-30T20:37:36;773.33;;;273.55;;
37284;SDS011;23172;53.550;9.964;2024-01-30T20:42:39;487.70;;;271.98;;
37284;SDS011;23172;53.550;9.964;2024-01-30T20:47:41;340.95;;;200.77;;
37284;SDS011;23172;53.550;9.964;2024-01-30T20:52:43;312.67;;;139.20;;
37284;SDS011;23172;53.550;9.964;2024-01-30T20:57:47;473.15;;;184.35;;
37284;SDS011;23172;53.550;9.964;2024-01-30T21:02:48;204.63;;;140.20;;
37284;SDS011;23172;53.550;9.964;2024-01-30T21:07:52;360.60;;;168.65;;
37284;SDS011;23172;53.550;9.964;2024-01-30T21:12:55;353.35;;;152.05;;
37284;SDS011;23172;53.550;9.964;2024-01-30T21:18:00;255.90;;;93.57;;
37284;SDS011;23172;53.550;9.964;2024-01-30T21:23:03;189.00;;;84.50;;
37284;SDS011;23172;53.550;9.964;2024-01-30T21:28:07;337.13;;;123.30;;
37284;SDS011;23172;53.550;9.964;2024-01-30T21:33:09;510.02;;;203.60;;
37284;SDS011;23172;53.550;9.964;2024-01-30T21:38:10;275.10;;;127.25;;
37284;SDS011;23172;53.550;9.964;2024-01-30T21:43:16;242.77;;;105.75;;
37284;SDS011;23172;53.550;9.964;2024-01-30T21:48:18;230.00;;;100.35;;
37284;SDS011;23172;53.550;9.964;2024-01-30T21:53:20;222.27;;;105.85;;
37284;SDS011;23172;53.550;9.964;2024-01-30T21:58:23;135.85;;;84.15;;
37284;SDS011;23172;53.550;9.964;2024-01-30T22:03:25;248.93;;;94.75;;
37284;SDS011;23172;53.550;9.964;2024-01-30T22:08:27;132.00;;;67.53;;
37284;SDS011;23172;53.550;9.964;2024-01-30T22:13:30;166.27;;;55.50;;
37284;SDS011;23172;53.550;9.964;2024-01-30T22:18:32;228.35;;;66.03;;
37284;SDS011;23172;53.550;9.964;2024-01-30T22:23:34;149.15;;;55.00;;
37284;SDS011;23172;53.550;9.964;2024-01-30T22:28:38;168.60;;;63.22;;
37284;SDS011;23172;53.550;9.964;2024-01-30T22:33:39;182.40;;;67.85;;
37284;SDS011;23172;53.550;9.964;2024-01-30T22:38:42;261.02;;;60.17;;
37284;SDS011;23172;53.550;9.964;2024-01-30T22:43:45;282.45;;;66.65;;
37284;SDS011;23172;53.550;9.964;2024-01-30T22:48:47;257.10;;;100.18;;
37284;SDS011;23172;53.550;9.964;2024-01-30T22:53:49;176.05;;;92.15;;
37284;SDS011;23172;53.550;9.964;2024-01-30T22:58:53;197.88;;;76.10;;
37284;SDS011;23172;53.550;9.964;2024-01-30T23:03:55;262.40;;;107.20;;
37284;SDS011;23172;53.550;9.964;2024-01-30T23:08:57;227.45;;;82.35;;
37284;SDS011;23172;53.550;9.964;2024-01-30T23:14:01;301.60;;;153.23;;
37284;SDS011;23172;53.550;9.964;2024-01-30T23:19:03;274.67;;;139.75;;
37284;SDS011;23172;53.550;9.964;2024-01-30T23:24:05;253.85;;;134.18;;
37284;SDS011;23172;53.550;9.964;2024-01-30T23:29:09;254.20;;;120.28;;
37284;SDS011;23172;53.550;9.964;2024-01-30T23:34:11;201.55;;;104.72;;
37284;SDS011;23172;53.550;9.964;2024-01-30T23:39:13;220.68;;;99.43;;
37284;SDS011;23172;53.550;9.964;2024-01-30T23:44:17;254.60;;;102.80;;
37284;SDS011;23172;53.550;9.964;2024-01-30T23:49:19;196.05;;;95.07;;
37284;SDS011;23172;53.550;9.964;2024-01-30T23:54:21;219.25;;;90.97;;
37284;SDS011;23172;53.550;9.964;2024-01-30T23:59:25;318.83;;;155.38;;
